Time;durP1;ratioP1;P1;durP2;ratioP2;P2;SDS_P1;SDS_P2;PMS_P1;PMS_P2;Temp;Humidity;BMP_temperature;BMP_pressure;BME280_temperature;BME280_humidity;BME280_pressure;Samples;Min_cycle;Max_cycle;Signal;HPM_P1;HPM_P2
2021/05/27 00:00:29;;;;;;;13.63;5.00;;;8.60;99.90;;;-146.41;100.00;57768.22;5117478;27;20415;-66
2021/05/27 00:02:57;;;;;;;7.72;5.10;;;8.60;99.90;;;-146.41;100.00;57768.22;5106860;27;20063;-66
2021/05/27 00:05:24;;;;;;;7.60;4.88;;;8.50;99.90;;;-146.41;100.00;57768.22;5111039;27;20031;-65
2021/05/27 00:07:52;;;;;;;10.63;5.40;;;8.50;99.90;;;-146.41;100.00;57768.22;5120219;27;20058;-66
2021/05/27 00:10:24;;;;;;;9.60;5.95;;;8.40;99.90;;;-146.41;100.00;57768.22;5120515;27;20057;-66
2021/05/27 00:12:52;;;;;;;11.43;7.30;;;8.30;99.90;;;-146.41;100.00;57768.22;5130522;27;20092;-65
2021/05/27 00:15:22;;;;;;;8.50;5.93;;;8.30;99.90;;;-146.41;100.00;57768.22;5128885;27;20046;-66
2021/05/27 00:17:49;;;;;;;11.77;7.50;;;8.20;99.90;;;-146.41;100.00;57768.22;5121595;27;20401;-65
2021/05/27 00:20:17;;;;;;;10.07;7.28;;;8.10;99.90;;;-146.41;100.00;57768.22;5097283;28;20505;-65
2021/05/27 00:22:45;;;;;;;11.02;7.22;;;8.20;99.90;;;-146.41;100.00;57768.22;5093061;27;20078;-65
2021/05/27 00:25:14;;;;;;;10.63;6.78;;;8.20;99.90;;;-146.41;100.00;57768.22;5121518;27;20480;-65
2021/05/27 00:27:45;;;;;;;11.02;6.82;;;8.10;99.90;;;-146.41;100.00;57768.22;5124181;27;20047;-65
2021/05/27 00:30:14;;;;;;;12.15;8.60;;;8.20;99.90;;;-146.41;100.00;57768.22;5126429;27;20072;-65
2021/05/27 00:32:42;;;;;;;16.00;8.13;;;8.10;99.90;;;-146.41;100.00;57768.22;5127078;27;20083;-65
2021/05/27 00:35:09;;;;;;;14.90;7.60;;;8.10;99.90;;;-146.41;100.00;57768.22;5120701;27;20120;-65
2021/05/27 00:37:37;;;;;;;11.52;8.38;;;8.20;99.90;;;-146.41;100.00;57768.22;5129563;27;20043;-65
2021/05/27 00:40:07;;;;;;;11.30;7.50;;;8.10;99.90;;;-146.41;100.00;57768.22;5117822;27;20613;-66
2021/05/27 00:42:35;;;;;;;10.68;7.22;;;8.10;99.90;;;-146.41;100.00;57768.22;5111524;27;20088;-65
2021/05/27 00:45:12;;;;;;;16.30;9.77;;;8.00;99.90;;;-146.41;100.00;57768.22;5130494;27;20047;-66
2021/05/27 00:47:41;;;;;;;10.50;8.00;;;8.00;99.90;;;-146.41;100.00;57768.22;5109723;27;20085;-65
2021/05/27 00:50:20;;;;;;;10.93;8.18;;;8.00;99.90;;;-146.41;100.00;57768.22;5092659;28;20039;-65
2021/05/27 00:52:58;;;;;;;13.02;8.32;;;8.00;99.90;;;-146.41;100.00;57768.22;5093529;28;20048;-65
2021/05/27 00:55:31;;;;;;;14.73;9.80;;;8.00;99.90;;;-146.41;100.00;57768.22;5120359;27;20100;-65
2021/05/27 00:57:59;;;;;;;13.18;9.32;;;8.00;99.90;;;-146.41;100.00;57768.22;5122950;27;20511;-65
2021/05/27 01:00:27;;;;;;;13.35;8.60;;;7.90;99.90;;;-146.41;100.00;57768.22;5110698;27;20050;-65
2021/05/27 01:02:55;;;;;;;15.82;8.82;;;7.90;99.90;;;-146.41;100.00;57768.22;5112794;27;20092;-65
2021/05/27 01:05:22;;;;;;;15.48;9.98;;;8.00;99.90;;;-146.41;100.00;57768.22;5107385;27;20039;-65
2021/05/27 01:07:50;;;;;;;16.25;10.25;;;7.90;99.90;;;-146.41;100.00;57768.22;5130124;27;20060;-65
2021/05/27 01:10:17;;;;;;;13.85;8.15;;;8.00;99.90;;;-146.41;100.00;57768.22;5129067;27;20126;-66
2021/05/27 01:12:45;;;;;;;17.45;10.07;;;8.00;99.90;;;-146.41;100.00;57768.22;5127209;27;20039;-65
2021/05/27 01:15:31;;;;;;;15.98;10.48;;;8.00;99.90;;;-146.41;100.00;57768.22;5129472;27;20047;-65
2021/05/27 01:18:07;;;;;;;13.20;9.13;;;8.10;99.90;;;-146.41;100.00;57768.22;5103888;27;20043;-65
2021/05/27 01:20:34;;;;;;;13.55;8.88;;;8.10;99.90;;;-146.41;100.00;57768.22;5133324;27;20039;-65
2021/05/27 01:23:03;;;;;;;12.85;8.43;;;8.10;99.90;;;-146.41;100.00;57768.22;5122078;27;20543;-65
2021/05/27 01:25:31;;;;;;;14.60;9.77;;;8.20;99.90;;;-146.41;100.00;57768.22;5111287;28;20115;-65
2021/05/27 01:27:58;;;;;;;17.25;10.45;;;8.20;99.90;;;-146.41;100.00;57768.22;5087451;28;20035;-65
2021/05/27 01:30:25;;;;;;;16.17;9.98;;;8.20;99.90;;;-146.41;100.00;57768.22;5120232;28;20480;-66
2021/05/27 01:32:52;;;;;;;14.50;10.52;;;8.20;99.90;;;-146.41;100.00;57768.22;5123963;28;20128;-66
2021/05/27 01:35:26;;;;;;;13.85;9.35;;;8.10;99.90;;;-146.41;100.00;57768.22;5124831;28;20078;-65
2021/05/27 01:37:54;;;;;;;17.70;9.75;;;8.10;99.90;;;-146.41;100.00;57768.22;5126197;28;20036;-66
2021/05/27 01:40:23;;;;;;;16.88;8.98;;;8.10;99.90;;;-146.41;100.00;57768.22;5100393;28;20522;-66
2021/05/27 01:42:54;;;;;;;12.35;9.25;;;8.10;99.90;;;-146.41;100.00;57768.22;5110823;28;20058;-65
2021/05/27 01:45:21;;;;;;;12.73;9.68;;;8.00;99.90;;;-146.41;100.00;57768.22;5125822;28;20525;-66
2021/05/27 01:47:56;;;;;;;14.55;9.45;;;8.00;99.90;;;-146.41;100.00;57768.22;5107175;28;20065;-66
2021/05/27 01:50:23;;;;;;;17.63;10.77;;;8.10;99.90;;;-146.41;100.00;57768.22;5117258;28;20105;-65
2021/05/27 01:52:55;;;;;;;16.02;10.90;;;8.00;99.90;;;-146.41;100.00;57768.22;5107135;28;20043;-66
2021/05/27 01:55:23;;;;;;;12.48;9.15;;;8.10;99.90;;;-146.41;100.00;57768.22;5095493;28;20105;-65
2021/05/27 01:57:50;;;;;;;12.82;10.55;;;8.00;99.90;;;-146.41;100.00;57768.22;5110798;28;20442;-65
2021/05/27 02:00:19;;;;;;;16.83;10.60;;;8.00;99.90;;;-146.41;100.00;57768.22;5113253;28;20466;-65
2021/05/27 02:02:46;;;;;;;14.52;10.32;;;8.00;99.90;;;-146.41;100.00;57768.22;5099607;28;20074;-65
2021/05/27 02:05:14;;;;;;;12.45;9.48;;;8.10;99.90;;;-146.41;100.00;57768.22;5121376;28;20572;-66
2021/05/27 02:07:42;;;;;;;18.13;10.65;;;8.00;99.90;;;-146.41;100.00;57768.22;5125704;28;20438;-65
2021/05/27 02:10:11;;;;;;;16.63;11.65;;;8.00;99.90;;;-146.41;100.00;57768.22;5094926;28;20079;-65
2021/05/27 02:12:38;;;;;;;21.15;12.88;;;8.00;99.90;;;-146.41;100.00;57768.22;5126855;28;20035;-65
2021/05/27 02:15:08;;;;;;;21.23;12.57;;;8.10;99.90;;;-146.41;100.00;57768.22;5128022;28;20043;-65
2021/05/27 02:17:36;;;;;;;16.95;11.57;;;8.10;99.90;;;-146.41;100.00;57768.22;5125984;28;20103;-65
2021/05/27 02:20:07;;;;;;;22.73;13.45;;;8.20;99.90;;;-146.41;100.00;57768.22;5124598;28;20043;-65
2021/05/27 02:22:35;;;;;;;15.15;10.52;;;8.10;99.90;;;-146.41;100.00;57768.22;5098500;28;20035;-65
2021/05/27 02:25:05;;;;;;;21.77;13.30;;;8.00;99.90;;;-146.41;100.00;57768.22;5125386;28;20132;-65
2021/05/27 02:27:33;;;;;;;20.15;11.73;;;8.10;99.90;;;-146.41;100.00;57768.22;5124425;28;20066;-65
2021/05/27 02:30:01;;;;;;;19.58;12.60;;;8.00;99.90;;;-146.41;100.00;57768.22;5128266;28;20031;-65
2021/05/27 02:32:28;;;;;;;17.13;11.95;;;8.00;99.90;;;-146.41;100.00;57768.22;5115358;28;20067;-65
2021/05/27 02:34:55;;;;;;;20.80;11.65;;;8.00;99.90;;;-146.41;100.00;57768.22;5121247;28;20146;-65
2021/05/27 02:37:22;;;;;;;16.55;11.05;;;8.10;99.90;;;-146.41;100.00;57768.22;5126245;28;20071;-65
2021/05/27 02:39:49;;;;;;;18.75;13.10;;;8.00;99.90;;;-146.41;100.00;57768.22;5129831;27;20047;-65
2021/05/27 02:42:16;;;;;;;19.20;13.60;;;8.00;99.90;;;-146.41;100.00;57768.22;5131174;27;20050;-65
2021/05/27 02:44:43;;;;;;;17.75;13.55;;;8.00;99.90;;;-146.41;100.00;57768.22;5133161;27;20448;-65
2021/05/27 02:47:10;;;;;;;16.42;10.45;;;8.00;99.90;;;-146.41;100.00;57768.22;5117565;27;20048;-65
2021/05/27 02:49:37;;;;;;;13.13;9.95;;;8.00;99.90;;;-146.41;100.00;57768.22;5104995;27;20119;-65
2021/05/27 02:52:04;;;;;;;17.80;11.00;;;8.00;99.90;;;-146.41;100.00;57768.22;5119379;27;20039;-66
2021/05/27 02:54:31;;;;;;;14.18;8.68;;;8.00;99.90;;;-146.41;100.00;57768.22;5131123;27;20043;-66
2021/05/27 02:56:59;;;;;;;19.33;12.43;;;7.90;99.90;;;-146.41;100.00;57768.22;5103453;27;20104;-65
2021/05/27 02:59:27;;;;;;;14.05;9.57;;;7.90;99.90;;;-146.41;100.00;57768.22;5080753;27;20116;-65
2021/05/27 03:01:54;;;;;;;14.70;9.52;;;7.90;99.90;;;-146.41;100.00;57768.22;5126830;27;20080;-66
2021/05/27 03:04:21;;;;;;;15.88;11.15;;;7.90;99.90;;;-146.41;100.00;57768.22;5131543;27;20453;-66
2021/05/27 03:06:49;;;;;;;14.68;9.60;;;7.80;99.90;;;-146.41;100.00;57768.22;5116674;27;20051;-65
2021/05/27 03:09:16;;;;;;;15.75;10.13;;;7.80;99.90;;;-146.41;100.00;57768.22;5126202;27;20095;-65
2021/05/27 03:11:43;;;;;;;17.77;10.73;;;7.80;99.90;;;-146.41;100.00;57768.22;5116842;27;20040;-65
2021/05/27 03:14:10;;;;;;;20.02;9.95;;;7.80;99.90;;;-146.41;100.00;57768.22;5100349;27;20488;-65
2021/05/27 03:16:37;;;;;;;16.52;10.38;;;7.70;99.90;;;-146.41;100.00;57768.22;5128141;27;20047;-65
2021/05/27 03:19:04;;;;;;;15.25;10.52;;;7.70;99.90;;;-146.41;100.00;57768.22;5119895;27;20051;-65
2021/05/27 03:21:31;;;;;;;15.63;9.48;;;7.80;99.90;;;-146.41;100.00;57768.22;5128089;27;20075;-65
2021/05/27 03:23:58;;;;;;;16.58;9.80;;;7.90;99.90;;;-146.41;100.00;57768.22;5131273;27;20039;-65
2021/05/27 03:26:25;;;;;;;19.02;10.45;;;7.90;99.90;;;-146.41;100.00;57768.22;5107772;27;20043;-65
2021/05/27 03:28:52;;;;;;;14.00;10.45;;;7.90;99.90;;;-146.41;100.00;57768.22;5124971;27;20066;-65
2021/05/27 03:31:19;;;;;;;16.25;8.85;;;7.90;99.90;;;-146.41;100.00;57768.22;5130993;27;20035;-65
2021/05/27 03:33:46;;;;;;;16.48;9.70;;;7.80;99.90;;;-146.41;100.00;57768.22;5131989;27;20047;-65
2021/05/27 03:36:13;;;;;;;13.13;8.57;;;7.80;99.90;;;-146.41;100.00;57768.22;5112863;27;20051;-66
2021/05/27 03:38:40;;;;;;;12.63;8.30;;;7.80;99.90;;;-146.41;100.00;57768.22;5123238;27;20092;-65
2021/05/27 03:41:07;;;;;;;13.13;7.53;;;7.80;99.90;;;-146.41;100.00;57768.22;5129534;27;20138;-66
2021/05/27 03:43:34;;;;;;;14.45;7.75;;;7.80;99.90;;;-146.41;100.00;57768.22;5131923;27;20047;-65
2021/05/27 03:46:02;;;;;;;13.98;8.98;;;7.80;99.90;;;-146.41;100.00;57768.22;5125910;27;20031;-65
2021/05/27 03:48:29;;;;;;;13.48;8.82;;;7.90;99.90;;;-146.41;100.00;57768.22;5122392;27;20066;-65
2021/05/27 03:50:56;;;;;;;18.60;8.68;;;7.90;99.90;;;-146.41;100.00;57768.22;5127289;27;20035;-65
2021/05/27 03:53:23;;;;;;;14.80;8.23;;;7.90;99.90;;;-146.41;100.00;57768.22;5131320;27;20171;-65
2021/05/27 03:55:51;;;;;;;13.68;7.53;;;8.00;99.90;;;-146.41;100.00;57768.22;5121208;27;20047;-66
2021/05/27 04:01:03;;;;;;;14.32;6.78;;;7.90;99.90;;;-146.41;100.00;57768.22;5123801;27;20088;-65
2021/05/27 04:07:06;;;;;;;11.85;7.05;;;8.00;99.90;;;-146.41;100.00;57768.22;5128630;27;20405;-65
2021/05/27 04:09:04;;;;;;;12.45;5.55;;;8.00;99.90;;;-146.41;100.00;57768.22;5127677;27;20100;-66
2021/05/27 04:11:31;;;;;;;15.82;8.20;;;8.10;99.90;;;-146.41;100.00;57768.22;5129395;27;20500;-65
2021/05/27 04:13:58;;;;;;;14.57;6.60;;;8.10;99.90;;;-146.41;100.00;57768.22;5130376;27;20047;-66
2021/05/27 04:16:25;;;;;;;10.27;6.00;;;8.10;99.90;;;-146.41;100.00;57768.22;5128315;27;20569;-66
2021/05/27 04:18:52;;;;;;;13.18;7.38;;;8.10;99.90;;;-146.41;100.00;57768.22;5126333;27;20039;-65
2021/05/27 04:21:19;;;;;;;12.65;7.38;;;8.10;99.90;;;-146.41;100.00;57768.22;5126020;27;20489;-65
2021/05/27 04:23:46;;;;;;;11.15;7.32;;;8.20;99.90;;;-146.41;100.00;57768.22;5127241;27;20091;-66
2021/05/27 04:26:15;;;;;;;15.45;7.55;;;8.20;99.90;;;-146.41;100.00;57768.22;5122906;27;20580;-65
2021/05/27 04:28:45;;;;;;;16.55;7.93;;;8.20;99.90;;;-146.41;100.00;57768.22;5079159;27;20036;-66
2021/05/27 04:31:17;;;;;;;12.35;7.32;;;8.30;99.90;;;-146.41;100.00;57768.22;5109296;27;20119;-66
2021/05/27 04:33:45;;;;;;;13.48;7.85;;;8.30;99.90;;;-146.41;100.00;57768.22;5108754;27;20543;-65
2021/05/27 04:36:15;;;;;;;12.82;7.80;;;8.40;99.90;;;-146.41;100.00;57768.22;5127265;27;20126;-66
2021/05/27 04:38:45;;;;;;;11.68;7.22;;;8.40;99.90;;;-146.41;100.00;57768.22;5100375;27;20039;-66
2021/05/27 04:41:13;;;;;;;13.55;7.07;;;8.30;99.90;;;-146.41;100.00;57768.22;5120895;27;20044;-65
2021/05/27 04:43:40;;;;;;;13.88;7.10;;;8.40;99.90;;;-146.41;100.00;57768.22;5106940;28;20043;-66
2021/05/27 04:46:08;;;;;;;12.80;7.43;;;8.40;99.90;;;-146.41;100.00;57768.22;5121016;27;20089;-65
2021/05/27 04:48:37;;;;;;;11.30;7.63;;;8.50;99.90;;;-146.41;100.00;57768.22;5125851;27;20039;-65
2021/05/27 04:51:05;;;;;;;17.40;7.30;;;8.40;99.90;;;-146.41;100.00;57768.22;5128185;27;20055;-65
2021/05/27 04:53:32;;;;;;;10.63;6.38;;;8.40;99.90;;;-146.41;100.00;57768.22;5122171;27;20042;-65
2021/05/27 04:56:00;;;;;;;9.50;6.07;;;8.40;99.90;;;-146.41;100.00;57768.22;5106942;27;20093;-65
2021/05/27 04:58:29;;;;;;;13.15;7.50;;;8.40;99.90;;;-146.41;100.00;57768.22;5124240;27;20062;-65
2021/05/27 05:00:57;;;;;;;11.68;7.00;;;8.50;99.90;;;-146.41;100.00;57768.22;5100758;28;20032;-65
2021/05/27 05:03:25;;;;;;;16.38;6.40;;;8.40;99.90;;;-146.41;100.00;57768.22;5093560;28;20360;-65
2021/05/27 05:05:52;;;;;;;14.80;8.10;;;8.40;99.90;;;-146.41;100.00;57768.22;5098242;27;20043;-66
2021/05/27 05:08:19;;;;;;;11.00;5.15;;;8.40;99.90;;;-146.41;100.00;57768.22;5123059;27;20514;-65
2021/05/27 05:10:47;;;;;;;13.43;5.93;;;8.40;99.90;;;-146.41;100.00;57768.22;5126514;27;20039;-65
2021/05/27 05:13:14;;;;;;;15.25;5.63;;;8.40;99.90;;;-146.41;100.00;57768.22;5107656;27;20423;-65
2021/05/27 05:15:42;;;;;;;12.90;6.30;;;8.40;99.90;;;-146.41;100.00;57768.22;5099978;28;20067;-65
2021/05/27 05:18:15;;;;;;;11.02;5.47;;;8.40;99.90;;;-146.41;100.00;57768.22;5112153;28;20148;-65
2021/05/27 05:20:49;;;;;;;10.70;6.78;;;8.60;99.90;;;-146.41;100.00;57768.22;5108299;27;20114;-65
2021/05/27 05:23:17;;;;;;;9.73;5.40;;;8.50;99.90;;;-146.41;100.00;57768.22;5109997;27;20512;-65
2021/05/27 05:25:45;;;;;;;11.52;6.97;;;8.50;99.90;;;-146.41;100.00;57768.22;5108520;28;20085;-66
2021/05/27 05:28:12;;;;;;;10.13;5.85;;;8.60;99.90;;;-146.41;100.00;57768.22;5108953;28;20035;-66
2021/05/27 05:30:42;;;;;;;14.23;6.05;;;8.70;99.90;;;-146.41;100.00;57768.22;5116149;28;20104;-66
2021/05/27 05:33:09;;;;;;;9.93;5.80;;;8.70;99.90;;;-146.41;100.00;57768.22;5125455;28;20031;-66
2021/05/27 05:35:37;;;;;;;12.38;5.57;;;8.80;99.90;;;-146.41;100.00;57768.22;5112475;28;20048;-65
2021/05/27 05:38:05;;;;;;;9.63;6.47;;;8.80;99.90;;;-146.41;100.00;57768.22;5124287;28;20127;-65
2021/05/27 05:40:33;;;;;;;15.20;6.47;;;8.80;99.90;;;-146.41;100.00;57768.22;5125730;28;20051;-65
2021/05/27 05:43:00;;;;;;;9.57;6.30;;;8.90;99.90;;;-146.41;100.00;57768.22;5130055;28;20043;-65
2021/05/27 05:45:27;;;;;;;11.00;6.55;;;9.00;99.90;;;-146.41;100.00;57768.22;5106072;28;20145;-65
2021/05/27 05:47:58;;;;;;;14.00;6.72;;;9.00;99.90;;;-146.41;100.00;57768.22;5110863;28;20054;-65
2021/05/27 05:50:45;;;;;;;13.85;6.72;;;9.00;99.90;;;-146.41;100.00;57768.22;5125013;28;20047;-66
2021/05/27 05:53:22;;;;;;;14.05;5.72;;;9.00;99.90;;;-146.41;100.00;57768.22;5114188;28;20043;-65
2021/05/27 05:55:51;;;;;;;8.98;5.80;;;9.00;99.90;;;-146.41;100.00;57768.22;5096278;28;20500;-66
2021/05/27 05:58:20;;;;;;;11.52;4.97;;;9.10;99.90;;;-146.41;100.00;57768.22;5119163;28;20051;-65
2021/05/27 06:00:48;;;;;;;13.82;5.88;;;9.30;99.90;;;-146.41;100.00;57768.22;5103232;28;20409;-65
2021/05/27 06:03:15;;;;;;;7.13;3.75;;;9.30;99.90;;;-146.41;100.00;57768.22;5120431;28;20048;-65
2021/05/27 06:05:42;;;;;;;9.38;5.28;;;9.30;99.90;;;-146.41;100.00;57768.22;5123385;28;20040;-66
2021/05/27 06:08:09;;;;;;;12.20;4.88;;;9.40;99.90;;;-146.41;100.00;57768.22;5123635;28;20077;-65
2021/05/27 06:10:36;;;;;;;9.00;5.00;;;9.50;99.90;;;-146.41;100.00;57768.22;5121985;28;20039;-66
2021/05/27 06:13:04;;;;;;;7.65;4.35;;;9.70;99.90;;;-146.41;100.00;57768.22;5117387;27;20039;-65
2021/05/27 06:15:31;;;;;;;5.10;3.63;;;9.50;99.90;;;-146.41;100.00;57768.22;5109328;27;20563;-65
2021/05/27 06:18:00;;;;;;;7.22;4.45;;;9.50;99.90;;;-146.41;100.00;57768.22;5125466;27;20035;-65
2021/05/27 06:20:29;;;;;;;10.63;5.07;;;9.60;99.90;;;-146.41;100.00;57768.22;5090583;27;20110;-65
2021/05/27 06:22:57;;;;;;;11.57;4.70;;;9.70;99.90;;;-146.41;100.00;57768.22;5131297;27;20080;-66
2021/05/27 06:25:25;;;;;;;8.90;4.22;;;9.80;99.90;;;-146.41;100.00;57768.22;5125241;27;20518;-65
2021/05/27 06:27:53;;;;;;;9.48;3.38;;;9.80;99.90;;;-146.41;100.00;57768.22;5111044;27;20535;-65
2021/05/27 06:30:23;;;;;;;10.82;3.85;;;9.80;99.90;;;-146.41;100.00;57768.22;5113537;27;20445;-66
2021/05/27 06:32:50;;;;;;;7.03;3.55;;;9.90;99.90;;;-146.41;100.00;57768.22;5124015;27;20099;-66
2021/05/27 06:35:17;;;;;;;8.88;3.25;;;10.00;99.90;;;-146.41;100.00;57768.22;5123372;27;20100;-66
2021/05/27 06:37:45;;;;;;;5.47;3.08;;;10.00;99.90;;;-146.41;100.00;57768.22;5121859;27;20058;-65
2021/05/27 06:40:16;;;;;;;9.07;3.65;;;10.10;99.90;;;-146.41;100.00;57768.22;5116364;27;20040;-66
2021/05/27 06:42:43;;;;;;;5.82;2.83;;;10.30;99.90;;;-146.41;100.00;57768.22;5129811;27;20090;-66
2021/05/27 06:45:12;;;;;;;6.82;2.83;;;10.20;99.90;;;-146.41;100.00;57768.22;5126717;27;20089;-65
2021/05/27 06:47:39;;;;;;;4.55;2.40;;;10.20;99.90;;;-146.41;100.00;57768.22;5126454;27;20039;-66
2021/05/27 06:50:12;;;;;;;8.23;3.33;;;10.10;99.90;;;-146.41;100.00;57768.22;5126397;27;20038;-66
2021/05/27 06:52:39;;;;;;;7.13;2.55;;;10.20;99.90;;;-146.41;100.00;57768.22;5111255;27;20050;-65
2021/05/27 06:55:07;;;;;;;8.27;3.13;;;10.10;99.90;;;-146.41;100.00;57768.22;5127899;27;20095;-65
2021/05/27 06:57:35;;;;;;;6.55;3.40;;;10.10;99.90;;;-146.41;100.00;57768.22;5131520;27;20092;-65
2021/05/27 07:00:05;;;;;;;9.07;2.78;;;10.20;99.90;;;-146.41;100.00;57768.22;5123544;27;20046;-65
2021/05/27 07:02:32;;;;;;;5.72;2.65;;;10.20;99.90;;;-146.41;100.00;57768.22;5106897;27;20046;-65
2021/05/27 07:04:59;;;;;;;7.88;3.13;;;10.30;99.90;;;-146.41;100.00;57768.22;5122871;27;20035;-65
2021/05/27 07:07:26;;;;;;;9.13;2.88;;;10.40;99.90;;;-146.41;100.00;57768.22;5130797;27;20035;-65
2021/05/27 07:09:54;;;;;;;12.55;4.22;;;10.20;99.90;;;-146.41;100.00;57768.22;5128624;27;20062;-66
2021/05/27 07:12:21;;;;;;;6.70;3.35;;;10.50;99.90;;;-146.41;100.00;57768.22;5128204;27;20096;-65
2021/05/27 07:14:49;;;;;;;12.23;3.97;;;10.70;99.90;;;-146.41;100.00;57768.22;5119813;27;20059;-66
2021/05/27 07:17:16;;;;;;;16.83;3.75;;;10.80;99.90;;;-146.41;100.00;57768.22;5115627;27;20151;-66
2021/05/27 07:19:43;;;;;;;4.55;2.45;;;11.00;99.90;;;-146.41;100.00;57768.22;5104833;27;20144;-65
2021/05/27 07:22:10;;;;;;;9.30;3.05;;;11.00;99.90;;;-146.41;100.00;57768.22;5118531;27;20048;-65
2021/05/27 07:24:37;;;;;;;4.55;2.63;;;11.10;99.90;;;-146.41;100.00;57768.22;5125569;27;20039;-65
2021/05/27 07:27:04;;;;;;;9.32;2.50;;;11.20;99.90;;;-146.41;100.00;57768.22;5107645;27;20096;-66
2021/05/27 07:29:32;;;;;;;7.03;2.95;;;11.30;99.90;;;-146.41;100.00;57768.22;5128555;27;20478;-66
2021/05/27 07:32:01;;;;;;;9.32;3.17;;;11.50;99.90;;;-146.41;100.00;57768.22;5119065;27;20054;-64
2021/05/27 07:34:28;;;;;;;8.15;2.67;;;11.50;99.90;;;-146.41;100.00;57768.22;5117183;27;20052;-64
2021/05/27 07:36:56;;;;;;;5.68;2.38;;;11.30;99.90;;;-146.41;100.00;57768.22;5120516;27;20047;-65
2021/05/27 07:39:23;;;;;;;9.88;3.33;;;11.20;99.90;;;-146.41;100.00;57768.22;5095655;28;20564;-64
2021/05/27 07:41:50;;;;;;;6.53;3.05;;;11.40;99.90;;;-146.41;100.00;57768.22;5111955;27;20043;-65
2021/05/27 07:44:17;;;;;;;7.70;2.75;;;11.60;99.90;;;-146.41;100.00;57768.22;5095894;27;20496;-64
2021/05/27 07:46:45;;;;;;;14.60;3.72;;;11.50;99.90;;;-146.41;100.00;57768.22;5122763;27;20035;-64
2021/05/27 07:49:12;;;;;;;6.95;3.38;;;11.50;99.90;;;-146.41;100.00;57768.22;5126683;27;20039;-65
2021/05/27 07:51:39;;;;;;;8.93;3.10;;;11.40;99.90;;;-146.41;100.00;57768.22;5128729;27;20402;-64
2021/05/27 07:54:06;;;;;;;5.70;2.25;;;11.50;99.90;;;-146.41;100.00;57768.22;5109766;27;20051;-65
2021/05/27 07:56:33;;;;;;;7.63;2.33;;;11.70;99.90;;;-146.41;100.00;57768.22;5125936;27;20489;-64
2021/05/27 07:59:00;;;;;;;5.53;2.70;;;11.70;99.90;;;-146.41;100.00;57768.22;5125324;27;20031;-65
2021/05/27 08:01:26;;;;;;;7.30;2.70;;;11.80;99.90;;;-146.41;100.00;57768.22;5125450;27;20043;-64
2021/05/27 08:03:54;;;;;;;4.55;2.35;;;11.60;99.90;;;-146.41;100.00;57768.22;5122184;27;20468;-65
2021/05/27 08:06:21;;;;;;;7.78;2.67;;;11.70;99.90;;;-146.41;100.00;57768.22;5117482;27;20489;-64
2021/05/27 08:08:49;;;;;;;5.72;2.35;;;11.90;99.90;;;-146.41;100.00;57768.22;5127623;27;20588;-64
2021/05/27 08:11:16;;;;;;;6.20;2.30;;;12.30;99.90;;;-146.41;100.00;57768.22;5120572;27;20549;-64
2021/05/27 08:13:43;;;;;;;5.93;2.10;;;12.70;99.90;;;-146.41;100.00;57768.22;5127966;27;20063;-65
2021/05/27 08:16:10;;;;;;;4.07;2.05;;;13.00;99.90;;;-146.41;100.00;57768.22;5125557;27;20051;-65
2021/05/27 08:18:37;;;;;;;5.80;2.25;;;13.60;99.90;;;-146.41;100.00;57768.22;5125792;27;20039;-65
2021/05/27 08:21:06;;;;;;;5.68;2.40;;;13.80;99.90;;;-146.41;100.00;57768.22;5104844;27;20043;-64
2021/05/27 08:23:33;;;;;;;4.93;2.22;;;13.90;99.90;;;-146.41;100.00;57768.22;5102155;27;20043;-64
2021/05/27 08:26:00;;;;;;;6.50;2.38;;;13.90;99.90;;;-146.41;100.00;57768.22;5096689;27;20043;-65
2021/05/27 08:28:27;;;;;;;5.25;1.70;;;13.50;99.90;;;-146.41;100.00;57768.22;5125116;27;20043;-65
2021/05/27 08:30:54;;;;;;;6.20;2.47;;;13.40;99.90;;;-146.41;100.00;57768.22;5114341;27;20364;-65
2021/05/27 08:33:21;;;;;;;7.63;2.15;;;13.40;99.90;;;-146.41;100.00;57768.22;5129234;27;20032;-65
2021/05/27 08:35:48;;;;;;;8.60;2.47;;;13.30;99.90;;;-146.41;100.00;57768.22;5129751;27;20190;-65
2021/05/27 08:38:15;;;;;;;5.43;2.42;;;13.10;99.90;;;-146.41;100.00;57768.22;5115756;27;20047;-65
2021/05/27 08:40:42;;;;;;;5.85;2.05;;;13.00;99.90;;;-146.41;100.00;57768.22;5122833;27;20036;-65
2021/05/27 08:43:12;;;;;;;4.22;1.90;;;12.90;99.90;;;-146.41;100.00;57768.22;5118706;27;20096;-64
2021/05/27 08:45:44;;;;;;;4.38;2.45;;;13.00;99.90;;;-146.41;100.00;57768.22;5112745;27;20062;-64
2021/05/27 08:48:15;;;;;;;5.60;2.13;;;13.10;99.90;;;-146.41;100.00;57768.22;5128314;27;20500;-64
2021/05/27 08:50:45;;;;;;;7.40;2.78;;;13.00;99.90;;;-146.41;100.00;57768.22;5117061;27;20303;-65
2021/05/27 08:53:14;;;;;;;6.97;2.72;;;12.80;99.90;;;-146.41;100.00;57768.22;5129815;27;20511;-64
2021/05/27 08:55:43;;;;;;;5.60;2.40;;;12.70;99.90;;;-146.41;100.00;57768.22;5111704;27;20039;-65
2021/05/27 08:58:10;;;;;;;8.60;2.30;;;12.60;99.90;;;-146.41;100.00;57768.22;5111360;27;20042;-64
2021/05/27 09:00:37;;;;;;;6.72;2.20;;;12.40;99.90;;;-146.41;100.00;57768.22;5117949;27;20517;-64
2021/05/27 09:03:06;;;;;;;5.50;2.53;;;12.40;99.90;;;-146.41;100.00;57768.22;5116344;27;20051;-65
2021/05/27 09:05:37;;;;;;;6.57;2.45;;;12.50;99.90;;;-146.41;100.00;57768.22;5123807;27;20480;-64
2021/05/27 09:08:09;;;;;;;4.22;2.20;;;12.60;99.90;;;-146.41;100.00;57768.22;5104853;27;20099;-64
2021/05/27 09:10:46;;;;;;;8.07;2.45;;;12.80;99.90;;;-146.41;100.00;57768.22;5110331;27;20088;-64
2021/05/27 09:13:19;;;;;;;6.28;2.42;;;13.00;99.90;;;-146.41;100.00;57768.22;5129453;27;20131;-64
2021/05/27 09:15:51;;;;;;;6.28;2.75;;;13.00;99.90;;;-146.41;100.00;57768.22;5091810;27;20050;-64
2021/05/27 09:18:33;;;;;;;9.65;2.88;;;13.00;99.90;;;-146.41;100.00;57768.22;5127633;27;20051;-64
2021/05/27 09:21:02;;;;;;;5.93;2.83;;;12.90;99.90;;;-146.41;100.00;57768.22;5120716;27;20043;-64
2021/05/27 09:23:29;;;;;;;5.38;2.45;;;12.90;99.90;;;-146.41;100.00;57768.22;5107308;28;20047;-65
2021/05/27 09:26:11;;;;;;;8.80;3.08;;;12.80;99.90;;;-146.41;100.00;57768.22;5119368;27;20043;-65
2021/05/27 09:28:46;;;;;;;5.65;2.47;;;12.50;99.90;;;-146.41;100.00;57768.22;5109082;28;20381;-65
2021/05/27 09:31:19;;;;;;;4.85;2.92;;;12.40;99.90;;;-146.41;100.00;57768.22;5128946;28;20123;-65
2021/05/27 09:33:59;;;;;;;6.78;3.20;;;12.40;99.90;;;-146.41;100.00;57768.22;5108959;28;20035;-65
2021/05/27 09:36:27;;;;;;;6.20;3.10;;;12.40;99.90;;;-146.41;100.00;57768.22;5125966;28;20092;-65
2021/05/27 09:38:57;;;;;;;9.73;2.80;;;12.70;99.90;;;-146.41;100.00;57768.22;5108070;28;20043;-65
2021/05/27 09:41:27;;;;;;;6.45;2.70;;;12.70;99.90;;;-146.41;100.00;57768.22;5126969;28;20047;-65
2021/05/27 09:44:06;;;;;;;4.70;2.40;;;12.80;99.90;;;-146.41;100.00;57768.22;5120712;28;20525;-65
2021/05/27 09:46:53;;;;;;;6.15;2.60;;;13.00;99.90;;;-146.41;100.00;57768.22;5117227;28;20039;-65
2021/05/27 09:49:25;;;;;;;5.35;2.80;;;13.30;99.90;;;-146.41;100.00;57768.22;5126813;27;20112;-64
2021/05/27 09:51:54;;;;;;;7.38;2.35;;;13.80;99.90;;;-146.41;100.00;57768.22;5118175;27;20118;-65
2021/05/27 09:54:23;;;;;;;6.93;2.22;;;14.40;99.90;;;-146.41;100.00;57768.22;5129592;27;20043;-65
2021/05/27 09:56:49;;;;;;;4.72;2.17;;;15.10;99.90;;;-146.41;100.00;57768.22;5131487;27;20043;-65
2021/05/27 09:59:17;;;;;;;6.03;1.63;;;15.70;99.90;;;-146.41;100.00;57768.22;5130054;27;20043;-66
2021/05/27 10:02:18;;;;;;;5.95;2.75;;;16.00;99.90;;;-146.41;100.00;57768.22;5130683;27;20050;-66
2021/05/27 10:04:58;;;;;;;5.40;1.58;;;16.30;99.90;;;-146.41;100.00;57768.22;5104364;27;20042;-65
2021/05/27 10:07:49;;;;;;;5.65;1.92;;;16.30;99.90;;;-146.41;100.00;57768.22;5124398;27;20092;-65
2021/05/27 10:10:36;;;;;;;5.00;1.90;;;15.90;99.90;;;-146.41;100.00;57768.22;5127420;27;20104;-65
2021/05/27 10:13:03;;;;;;;3.60;1.67;;;16.40;99.90;;;-146.41;100.00;57768.22;5109884;27;20039;-65